Time;durP1;ratioP1;P1;durP2;ratioP2;P2;SDS_P1;SDS_P2;PMS_P1;PMS_P2;Temp;Humidity;BMP_temperature;BMP_pressure;BME280_temperature;BME280_humidity;BME280_pressure;Samples;Min_cycle;Max_cycle;Signal;HPM_P1;HPM_P2
2022/09/05 06:39:59;;;;;;;6.82;3.97;;;19.30;99.90;;;;;;4891735;24;20062;-93
2022/09/05 06:49:21;;;;;;;4.45;3.47;;;19.80;99.90;;;;;;4871168;24;20057;-93
2022/09/05 06:52:37;;;;;;;5.72;3.17;;;19.90;99.00;;;;;;4836577;29;20053;-95
2022/09/05 06:55:44;;;;;;;5.95;3.17;;;20.00;98.90;;;;;;4850313;29;20523;-93
2022/09/05 06:58:21;;;;;;;4.93;2.83;;;19.90;97.50;;;;;;4833006;29;20041;-93
2022/09/05 07:00:54;;;;;;;4.63;2.25;;;20.00;98.10;;;;;;4822846;29;20049;-91
2022/09/05 07:03:40;;;;;;;3.75;2.10;;;20.10;95.80;;;;;;4838263;29;20057;-94
2022/09/05 07:06:14;;;;;;;4.57;2.60;;;20.20;96.50;;;;;;4824098;29;20046;-94
2022/09/05 07:09:12;;;;;;;4.18;2.30;;;20.30;96.40;;;;;;4816274;29;20050;-93
2022/09/05 07:11:43;;;;;;;2.90;1.90;;;20.50;95.30;;;;;;4836961;29;20049;-94
2022/09/05 07:14:21;;;;;;;2.95;1.65;;;20.50;95.00;;;;;;4828522;29;20057;-95
2022/09/05 07:16:57;;;;;;;2.92;1.83;;;20.60;94.50;;;;;;4835857;29;20048;-93
2022/09/05 07:19:26;;;;;;;3.97;2.03;;;20.70;93.30;;;;;;4828089;29;20054;-96
2022/09/05 07:22:06;;;;;;;3.05;2.13;;;20.80;93.10;;;;;;4827249;29;20054;-94
2022/09/05 07:24:55;;;;;;;4.82;2.10;;;20.90;92.20;;;;;;4824519;29;20068;-94
2022/09/05 07:27:42;;;;;;;2.40;1.77;;;21.00;93.60;;;;;;4832299;29;20479;-92
2022/09/05 07:30:32;;;;;;;4.07;2.15;;;21.10;93.40;;;;;;4831782;29;20053;-93
2022/09/05 07:33:02;;;;;;;5.30;2.50;;;21.20;92.90;;;;;;4824458;29;20114;-93
2022/09/05 07:35:34;;;;;;;6.43;2.20;;;21.20;92.30;;;;;;4823037;29;20038;-95
2022/09/05 07:38:27;;;;;;;6.30;2.55;;;21.30;92.10;;;;;;4826286;29;20045;-93
2022/09/05 07:41:26;;;;;;;7.20;2.22;;;21.40;92.50;;;;;;4837797;29;20041;-92
2022/09/05 07:44:01;;;;;;;5.90;2.70;;;21.50;91.00;;;;;;4825109;29;20418;-93
2022/09/05 07:46:35;;;;;;;5.32;2.63;;;21.50;90.80;;;;;;4819062;29;20050;-93
2022/09/05 07:49:15;;;;;;;3.72;2.40;;;21.70;91.60;;;;;;4819210;29;20140;-91
2022/09/05 07:51:51;;;;;;;3.78;2.20;;;21.70;90.40;;;;;;4842417;29;20053;-92
2022/09/05 07:54:40;;;;;;;3.40;2.00;;;21.60;89.10;;;;;;4828144;29;20038;-92
2022/09/05 07:57:44;;;;;;;2.65;2.00;;;21.70;89.00;;;;;;4828425;29;20046;-92
2022/09/05 08:00:23;;;;;;;2.97;2.33;;;21.90;91.00;;;;;;4838704;29;20049;-93
2022/09/05 08:03:07;;;;;;;3.40;2.00;;;22.00;91.20;;;;;;4826044;29;20065;-92
2022/09/05 08:05:49;;;;;;;5.82;2.35;;;22.10;90.30;;;;;;4823872;29;20388;-94
2022/09/05 08:08:21;;;;;;;3.65;2.30;;;22.10;87.20;;;;;;4836807;29;20102;-92
2022/09/05 08:10:54;;;;;;;2.65;2.22;;;22.20;90.00;;;;;;4825019;29;20052;-93
2022/09/05 08:13:48;;;;;;;2.78;2.05;;;22.40;87.70;;;;;;4831680;29;20045;-92
2022/09/05 08:16:20;;;;;;;4.05;1.95;;;22.40;86.10;;;;;;4829366;29;20124;-95
2022/09/05 08:19:00;;;;;;;2.95;1.80;;;22.50;85.10;;;;;;4827917;29;20057;-93
2022/09/05 08:21:30;;;;;;;2.53;1.83;;;22.60;85.00;;;;;;4837804;29;20046;-93
2022/09/05 08:24:11;;;;;;;2.78;2.05;;;22.50;82.60;;;;;;4817191;29;20532;-93
2022/09/05 08:26:49;;;;;;;3.90;1.70;;;22.60;82.90;;;;;;4819988;29;20054;-91
2022/09/05 08:29:39;;;;;;;3.67;1.70;;;22.60;81.70;;;;;;4827773;29;20073;-92
2022/09/05 08:32:36;;;;;;;2.80;1.80;;;22.60;83.90;;;;;;4831184;29;20511;-93
2022/09/05 08:35:21;;;;;;;5.05;2.03;;;22.60;80.50;;;;;;4823965;29;20050;-93
2022/09/05 08:37:50;;;;;;;3.60;1.88;;;22.70;79.60;;;;;;4826549;29;20126;-89
2022/09/05 08:40:21;;;;;;;4.00;2.28;;;22.70;80.20;;;;;;4830975;29;20091;-91
2022/09/05 08:42:54;;;;;;;3.15;1.85;;;22.80;79.90;;;;;;4845046;29;20057;-93
2022/09/05 08:46:12;;;;;;;3.40;1.98;;;22.70;78.90;;;;;;4843354;29;20046;-93
2022/09/05 08:49:26;;;;;;;4.10;1.92;;;22.80;79.40;;;;;;4830671;29;20051;-92
2022/09/05 08:52:07;;;;;;;2.47;1.80;;;22.90;78.80;;;;;;4824417;29;20839;-90
2022/09/05 08:55:00;;;;;;;2.60;1.77;;;22.90;77.70;;;;;;4827189;29;20052;-90
2022/09/05 08:58:01;;;;;;;2.40;1.80;;;22.90;76.60;;;;;;4825071;29;20178;-91
2022/09/05 09:00:38;;;;;;;6.32;2.28;;;22.90;77.30;;;;;;4827974;29;20146;-92
2022/09/05 09:03:26;;;;;;;4.05;2.15;;;23.00;77.20;;;;;;4838086;29;20635;-93
2022/09/05 09:05:54;;;;;;;4.40;1.95;;;23.00;75.90;;;;;;4819948;29;20054;-91
2022/09/05 09:09:00;;;;;;;4.57;1.75;;;23.00;75.80;;;;;;4823924;29;20095;-90
2022/09/05 09:11:43;;;;;;;3.25;1.80;;;23.10;74.40;;;;;;4825760;29;20089;-91
2022/09/05 09:15:00;;;;;;;2.67;1.80;;;23.00;73.70;;;;;;4855101;29;20053;-92
2022/09/05 09:17:36;;;;;;;3.47;1.80;;;23.10;74.60;;;;;;4811568;29;20061;-93
2022/09/05 09:20:19;;;;;;;2.78;2.00;;;23.10;75.00;;;;;;4826596;29;20042;-91
2022/09/05 09:23:05;;;;;;;;;;;23.10;74.90;;;;;;4821820;29;20415;-92
2022/09/05 09:26:19;;;;;;;2.78;1.65;;;23.20;72.60;;;;;;4831270;29;19924;-92
2022/09/05 09:29:07;;;;;;;3.42;1.83;;;23.10;72.40;;;;;;4844256;29;20581;-91
2022/09/05 09:31:50;;;;;;;4.25;2.15;;;23.20;72.90;;;;;;4820322;29;20060;-93
2022/09/05 09:34:24;;;;;;;2.08;1.70;;;23.20;72.40;;;;;;4835139;29;20133;-92
2022/09/05 09:37:00;;;;;;;3.90;2.50;;;23.10;72.60;;;;;;4840679;29;20078;-91
2022/09/05 09:39:30;;;;;;;3.10;2.45;;;23.20;73.40;;;;;;4845523;29;20045;-91
2022/09/05 09:42:44;;;;;;;2.30;1.88;;;23.30;73.80;;;;;;4838651;29;20058;-91
2022/09/05 09:45:27;;;;;;;4.22;1.95;;;23.20;74.10;;;;;;4797757;29;20508;-93
2022/09/05 09:48:15;;;;;;;3.65;2.13;;;23.30;75.90;;;;;;4828772;29;20499;-91
2022/09/05 09:51:11;;;;;;;2.53;2.08;;;23.40;73.50;;;;;;4843627;29;20120;-91
2022/09/05 09:54:03;;;;;;;2.50;1.77;;;23.50;72.60;;;;;;4838820;29;20060;-89
2022/09/05 09:56:55;;;;;;;2.28;1.83;;;23.40;71.40;;;;;;4816848;29;20144;-93
2022/09/05 09:59:41;;;;;;;3.63;2.30;;;23.40;72.40;;;;;;4829669;29;20054;-93
2022/09/05 10:02:51;;;;;;;2.42;2.10;;;23.40;71.60;;;;;;4842625;29;20088;-91
2022/09/05 10:05:57;;;;;;;4.95;2.00;;;23.40;71.80;;;;;;4831891;29;20041;-95
2022/09/05 10:08:44;;;;;;;4.20;2.85;;;23.60;70.30;;;;;;4834357;29;20042;-90
2022/09/05 10:12:03;;;;;;;2.42;2.00;;;23.60;69.30;;;;;;4829063;29;20042;-94
2022/09/05 10:14:56;;;;;;;3.72;2.00;;;23.60;69.30;;;;;;4829618;29;20049;-91
2022/09/05 10:17:47;;;;;;;3.80;1.77;;;23.60;69.30;;;;;;4826293;29;20041;-91
2022/09/05 10:20:34;;;;;;;2.92;2.15;;;23.70;68.50;;;;;;4823586;29;20046;-91
2022/09/05 10:23:45;;;;;;;2.40;2.00;;;23.70;69.80;;;;;;4820878;29;20135;-92
2022/09/05 10:26:28;;;;;;;2.92;2.17;;;23.80;68.80;;;;;;4816200;29;20041;-89
2022/09/05 10:29:05;;;;;;;2.42;1.80;;;23.80;68.70;;;;;;4823377;29;20050;-88
2022/09/05 10:32:05;;;;;;;2.63;1.92;;;23.80;67.60;;;;;;4825933;29;20042;-92
2022/09/05 10:34:57;;;;;;;6.45;2.88;;;23.50;69.50;;;;;;4821681;29;20071;-91
2022/09/05 10:38:01;;;;;;;3.03;1.83;;;23.20;71.00;;;;;;4831606;29;20049;-91
2022/09/05 10:40:42;;;;;;;3.00;1.92;;;23.10;70.60;;;;;;4825227;29;20060;-93
2022/09/05 10:43:31;;;;;;;4.35;2.08;;;23.00;71.50;;;;;;4837764;29;20049;-91
2022/09/05 10:46:34;;;;;;;2.03;1.75;;;23.30;72.90;;;;;;4830247;29;20065;-93
2022/09/05 10:49:26;;;;;;;3.35;2.53;;;23.50;72.00;;;;;;4841138;29;20061;-92
2022/09/05 10:51:59;;;;;;;2.42;2.05;;;23.50;71.20;;;;;;4827126;29;20061;-94
2022/09/05 10:54:57;;;;;;;4.82;1.83;;;23.20;70.10;;;;;;4830006;29;20439;-95
2022/09/05 10:57:59;;;;;;;3.13;2.30;;;23.00;71.90;;;;;;4845234;29;20107;-92
2022/09/05 11:00:46;;;;;;;3.40;2.38;;;22.90;71.40;;;;;;4839248;29;20049;-93
2022/09/05 11:03:54;;;;;;;3.50;2.08;;;22.80;71.50;;;;;;4827351;29;20053;-92
2022/09/05 11:06:46;;;;;;;2.45;2.22;;;22.70;73.10;;;;;;4817012;29;20054;-92
2022/09/05 11:09:23;;;;;;;4.40;2.35;;;22.70;71.80;;;;;;4838033;29;20502;-90
2022/09/05 11:12:31;;;;;;;3.05;2.63;;;22.70;71.10;;;;;;4824513;29;20085;-93
2022/09/05 11:15:01;;;;;;;3.80;2.53;;;22.60;71.70;;;;;;4831942;29;20041;-93
2022/09/05 11:17:50;;;;;;;3.67;2.40;;;22.60;71.80;;;;;;4824996;29;20592;-90
2022/09/05 11:20:27;;;;;;;3.10;2.40;;;22.50;72.50;;;;;;4827649;29;20172;-92
2022/09/05 11:23:13;;;;;;;2.70;2.13;;;22.60;74.30;;;;;;4828506;29;20075;-91
2022/09/05 11:25:41;;;;;;;3.78;2.20;;;22.50;73.20;;;;;;4830450;29;20058;-92
2022/09/05 11:28:17;;;;;;;4.05;2.42;;;22.50;72.60;;;;;;4823085;29;20049;-92
2022/09/05 11:30:52;;;;;;;5.20;2.40;;;22.60;73.10;;;;;;4821664;29;20149;-93
2022/09/05 11:33:28;;;;;;;3.28;2.42;;;23.00;72.70;;;;;;4836426;29;20102;-92
2022/09/05 11:36:22;;;;;;;2.70;2.47;;;23.20;71.30;;;;;;4820305;29;20187;-91
2022/09/05 11:39:37;;;;;;;4.15;2.22;;;23.40;69.40;;;;;;4818775;29;20042;-95
2022/09/05 11:42:58;;;;;;;3.22;2.03;;;23.60;69.60;;;;;;4825494;29;20045;-92
2022/09/05 11:45:59;;;;;;;2.88;1.80;;;23.50;72.10;;;;;;4820344;29;20141;-93
2022/09/05 11:48:57;;;;;;;3.58;2.03;;;23.20;71.90;;;;;;4835807;29;20057;-95
2022/09/05 11:51:34;;;;;;;3.03;2.10;;;23.10;74.40;;;;;;4836570;29;20537;-92
2022/09/05 11:54:23;;;;;;;3.10;2.58;;;23.00;72.00;;;;;;4820335;29;20056;-93
2022/09/05 11:57:32;;;;;;;3.47;2.70;;;23.00;74.10;;;;;;4833719;29;20511;-94
2022/09/05 12:00:12;;;;;;;2.63;1.85;;;22.90;73.00;;;;;;4818101;29;20045;-93
2022/09/05 12:03:15;;;;;;;3.00;1.90;;;22.80;72.50;;;;;;4813845;29;20058;-93
2022/09/05 12:06:24;;;;;;;2.80;1.92;;;22.80;72.00;;;;;;4821665;29;20515;-94
2022/09/05 12:09:03;;;;;;;3.97;1.73;;;22.80;72.80;;;;;;4828948;29;20049;-96
2022/09/05 12:12:11;;;;;;;3.63;1.75;;;23.10;72.80;;;;;;4831771;29;20049;-92
2022/09/05 12:15:15;;;;;;;3.45;2.00;;;23.30;71.00;;;;;;4836574;29;20053;-94
2022/09/05 12:18:14;;;;;;;3.33;1.88;;;23.30;69.00;;;;;;4823646;29;20102;-93
2022/09/05 12:21:14;;;;;;;3.83;1.90;;;23.10;70.00;;;;;;4828347;29;20061;-93
2022/09/05 12:23:51;;;;;;;2.97;2.10;;;23.00;70.10;;;;;;4830289;29;20046;-93
2022/09/05 12:26:45;;;;;;;2.40;1.90;;;23.00;71.40;;;;;;4823936;29;20046;-92
2022/09/05 12:29:36;;;;;;;2.92;1.95;;;22.90;71.40;;;;;;4844370;29;20053;-92
2022/09/05 12:32:26;;;;;;;4.22;2.00;;;23.20;72.80;;;;;;4828745;29;20042;-94
2022/09/05 12:35:32;;;;;;;2.65;1.92;;;23.50;71.70;;;;;;4822400;29;20057;-93
2022/09/05 12:38:34;;;;;;;3.10;2.35;;;23.80;71.80;;;;;;4819125;29;20089;-93
2022/09/05 12:41:24;;;;;;;2.78;1.70;;;24.00;69.80;;;;;;4843927;29;20101;-91
2022/09/05 12:44:22;;;;;;;3.05;1.80;;;24.10;67.40;;;;;;4840101;29;20618;-93
2022/09/05 12:47:16;;;;;;;2.33;1.52;;;24.10;69.60;;;;;;4843047;29;20057;-93
2022/09/05 12:50:06;;;;;;;2.25;1.58;;;24.20;67.60;;;;;;4843939;29;20053;-93
2022/09/05 12:52:45;;;;;;;3.70;1.70;;;24.30;69.50;;;;;;4826858;29;20060;-92
2022/09/05 12:55:27;;;;;;;2.88;1.55;;;24.30;69.20;;;;;;4814288;29;20053;-93
2022/09/05 12:57:59;;;;;;;1.75;1.58;;;24.40;67.90;;;;;;4817685;29;20053;-92
2022/09/05 13:00:48;;;;;;;3.25;1.48;;;24.40;67.90;;;;;;4831710;29;20041;-95
2022/09/05 13:03:50;;;;;;;2.55;1.30;;;24.40;66.40;;;;;;4829257;29;20049;-94
2022/09/05 13:06:44;;;;;;;3.43;2.23;;;24.30;67.90;;;;;;4836900;29;20495;-94
2022/09/05 13:09:12;;;;;;;3.70;1.65;;;24.30;66.80;;;;;;4820288;29;20083;-92
2022/09/05 13:12:03;;;;;;;2.45;1.40;;;24.30;65.90;;;;;;4812841;29;20049;-94
2022/09/05 13:15:07;;;;;;;2.78;1.52;;;24.30;65.80;;;;;;4838456;29;20053;-95
2022/09/05 13:18:01;;;;;;;2.58;1.40;;;24.30;67.20;;;;;;4820029;29;20681;-93
2022/09/05 13:20:36;;;;;;;2.17;1.30;;;24.30;62.30;;;;;;4841955;29;20034;-92
2022/09/05 13:23:17;;;;;;;2.13;1.38;;;24.20;62.60;;;;;;4827433;29;20046;-91
2022/09/05 13:26:06;;;;;;;2.38;1.42;;;24.30;63.30;;;;;;4824437;29;20415;-90
2022/09/05 13:28:51;;;;;;;3.25;1.67;;;24.30;62.30;;;;;;4835354;29;20042;-92
2022/09/05 13:31:36;;;;;;;2.77;1.50;;;24.30;62.90;;;;;;4838505;29;20389;-91
2022/09/05 13:34:41;;;;;;;1.70;1.60;;;24.40;64.70;;;;;;4827563;29;20296;-88
2022/09/05 13:37:34;;;;;;;3.13;2.00;;;24.50;63.70;;;;;;4828194;29;20042;-92
2022/09/05 13:40:27;;;;;;;2.33;1.52;;;24.40;63.80;;;;;;4828939;29;20052;-89
2022/09/05 13:43:04;;;;;;;2.08;1.23;;;24.50;64.50;;;;;;4842897;29;20125;-91
2022/09/05 13:45:47;;;;;;;3.10;2.25;;;24.40;64.80;;;;;;4823877;29;20080;-90
2022/09/05 13:48:52;;;;;;;4.50;1.30;;;24.40;64.60;;;;;;4826507;29;20073;-91
2022/09/05 13:51:44;;;;;;;2.28;1.30;;;24.40;63.90;;;;;;4845227;29;20041;-92
2022/09/05 13:54:39;;;;;;;2.53;1.25;;;24.40;64.00;;;;;;4841413;29;20046;-93
2022/09/05 13:57:19;;;;;;;6.10;1.95;;;24.30;63.30;;;;;;4843226;29;20041;-92
2022/09/05 14:00:16;;;;;;;1.67;1.13;;;24.40;62.50;;;;;;4830783;29;20049;-93
2022/09/05 14:03:13;;;;;;;1.35;1.13;;;24.30;63.30;;;;;;4821335;29;20049;-91
2022/09/05 14:06:28;;;;;;;2.20;1.27;;;24.30;62.30;;;;;;4828978;29;20050;-91
2022/09/05 14:09:51;;;;;;;6.32;2.22;;;24.30;62.10;;;;;;4820831;29;20098;-91
2022/09/05 14:12:59;;;;;;;2.55;1.45;;;24.30;64.40;;;;;;4840173;29;20072;-92
2022/09/05 14:15:37;;;;;;;1.90;1.10;;;24.30;64.60;;;;;;4837512;29;20458;-93
2022/09/05 14:18:27;;;;;;;2.92;1.35;;;24.20;64.80;;;;;;4840522;29;20045;-92
2022/09/05 14:21:14;;;;;;;3.08;1.65;;;24.10;66.50;;;;;;4833886;29;20060;-92
2022/09/05 14:23:44;;;;;;;3.92;1.67;;;24.10;65.70;;;;;;4821797;29;20049;-93
2022/09/05 14:26:35;;;;;;;2.38;1.30;;;24.10;65.10;;;;;;4815198;29;20053;-91
2022/09/05 14:29:06;;;;;;;4.50;1.35;;;24.10;65.60;;;;;;4834462;29;20110;-93
2022/09/05 14:31:51;;;;;;;3.67;1.55;;;24.20;64.70;;;;;;4841749;29;20084;-95
2022/09/05 14:34:49;;;;;;;2.08;1.40;;;24.20;65.80;;;;;;4824598;29;20042;-91
2022/09/05 14:37:55;;;;;;;2.75;1.20;;;24.20;66.00;;;;;;4827210;29;20058;-91
2022/09/05 14:41:10;;;;;;;2.55;1.60;;;24.20;65.10;;;;;;4822262;29;20053;-92
2022/09/05 14:43:59;;;;;;;3.38;2.03;;;24.10;65.30;;;;;;4825116;29;20049;-90
2022/09/05 14:46:51;;;;;;;1.90;1.40;;;24.00;65.30;;;;;;4830717;29;20469;-91
2022/09/05 14:49:28;;;;;;;2.55;1.60;;;24.00;66.60;;;;;;4833391;29;20061;-90
2022/09/05 14:51:56;;;;;;;3.50;1.77;;;24.00;65.60;;;;;;4845777;29;20145;-91
2022/09/05 14:54:38;;;;;;;2.05;1.70;;;24.10;65.60;;;;;;4839119;29;20041;-91
2022/09/05 14:57:33;;;;;;;2.13;1.50;;;24.10;66.70;;;;;;4833425;29;20098;-90
2022/09/05 15:00:21;;;;;;;4.22;1.80;;;24.00;66.40;;;;;;4840407;29;20052;-91
2022/09/05 15:03:10;;;;;;;2.25;1.30;;;24.00;66.60;;;;;;4825767;29;20053;-90
2022/09/05 15:05:49;;;;;;;2.30;1.42;;;24.00;64.70;;;;;;4836505;29;20061;-91
2022/09/05 15:08:20;;;;;;;3.80;1.80;;;23.90;65.50;;;;;;4844355;29;20109;-90
2022/09/05 15:11:11;;;;;;;4.53;1.88;;;23.90;66.20;;;;;;4827675;29;20045;-91
2022/09/05 15:14:02;;;;;;;2.88;1.77;;;24.00;64.70;;;;;;4827083;29;20046;-92
2022/09/05 15:16:35;;;;;;;1.55;1.45;;;24.10;65.20;;;;;;4826171;29;20074;-91
2022/09/05 15:19:03;;;;;;;1.83;1.33;;;24.10;63.90;;;;;;4825843;29;20042;-92
2022/09/05 15:21:36;;;;;;;3.42;1.40;;;24.00;64.50;;;;;;4821927;29;20069;-90
2022/09/05 15:24:22;;;;;;;2.42;1.65;;;24.00;63.40;;;;;;4822061;29;20056;-92
2022/09/05 15:26:53;;;;;;;1.60;1.50;;;23.90;64.30;;;;;;4826423;29;20062;-91
2022/09/05 15:29:23;;;;;;;2.03;1.42;;;24.00;64.70;;;;;;4835354;29;20038;-93
2022/09/05 15:31:52;;;;;;;3.53;1.98;;;24.00;65.30;;;;;;4842770;29;20558;-91
2022/09/05 15:34:36;;;;;;;2.28;1.60;;;23.90;66.00;;;;;;4829609;29;20045;-92
2022/09/05 15:37:29;;;;;;;3.85;1.80;;;24.00;65.50;;;;;;4825814;29;20049;-93
2022/09/05 15:40:05;;;;;;;3.33;2.10;;;23.90;66.70;;;;;;4825575;29;20046;-93
2022/09/05 15:42:52;;;;;;;2.35;1.40;;;23.90;67.10;;;;;;4841232;29;20080;-92
2022/09/05 15:45:36;;;;;;;2.78;1.60;;;23.80;66.60;;;;;;4835436;29;20069;-91
2022/09/05 15:48:07;;;;;;;2.83;1.98;;;23.80;66.60;;;;;;4838396;29;20076;-93
2022/09/05 15:50:54;;;;;;;4.28;1.58;;;23.80;67.10;;;;;;4841791;29;20053;-91
2022/09/05 15:53:33;;;;;;;1.83;1.35;;;23.70;66.00;;;;;;4827941;29;20077;-92
2022/09/05 15:56:09;;;;;;;2.25;1.65;;;23.70;66.70;;;;;;4841944;29;20042;-93
2022/09/05 15:58:50;;;;;;;1.98;1.55;;;23.70;67.20;;;;;;4824643;29;20068;-92
2022/09/05 16:01:34;;;;;;;3.55;1.55;;;23.70;67.60;;;;;;4827784;29;20065;-91
2022/09/05 16:04:24;;;;;;;3.28;1.60;;;23.70;67.60;;;;;;4838690;29;20598;-92
2022/09/05 16:07:18;;;;;;;2.70;1.90;;;23.70;66.90;;;;;;4816698;29;20042;-92
2022/09/05 16:10:08;;;;;;;4.32;1.80;;;23.70;68.30;;;;;;4824093;29;20124;-92
2022/09/05 16:12:58;;;;;;;5.65;2.08;;;23.70;67.60;;;;;;4818521;29;20071;-92
2022/09/05 16:15:50;;;;;;;2.28;1.55;;;23.60;67.60;;;;;;4827511;29;20041;-93
2022/09/05 16:18:46;;;;;;;1.75;1.52;;;23.60;66.60;;;;;;4826969;29;20060;-94
2022/09/05 16:21:35;;;;;;;3.97;1.67;;;23.60;68.00;;;;;;4830700;29;20073;-93
2022/09/05 16:24:30;;;;;;;2.95;2.00;;;23.50;68.80;;;;;;4830268;29;20582;-92
2022/09/05 16:28:12;;;;;;;2.50;1.67;;;23.50;68.60;;;;;;4838893;29;20118;-92
2022/09/05 16:30:40;;;;;;;2.88;1.75;;;23.40;67.20;;;;;;4795928;29;20050;-93
2022/09/05 16:33:21;;;;;;;2.33;1.60;;;23.40;66.60;;;;;;4829119;29;20121;-92
2022/09/05 16:36:13;;;;;;;5.03;1.90;;;23.40;67.20;;;;;;4838368;29;20046;-91
2022/09/05 16:38:45;;;;;;;3.30;1.50;;;23.30;67.70;;;;;;4839073;29;20058;-92
2022/09/05 16:41:29;;;;;;;2.03;1.58;;;23.20;68.00;;;;;;4839963;29;20049;-91
2022/09/05 16:44:24;;;;;;;3.47;1.83;;;23.20;68.20;;;;;;4819220;29;20415;-91
2022/09/05 16:47:06;;;;;;;2.42;1.58;;;23.10;68.30;;;;;;4823261;29;20606;-91
2022/09/05 16:49:40;;;;;;;2.85;1.70;;;23.10;68.10;;;;;;4836970;29;20059;-91
2022/09/05 16:52:11;;;;;;;1.58;1.30;;;23.10;67.70;;;;;;4840063;29;20419;-90
2022/09/05 16:55:12;;;;;;;2.30;1.65;;;23.00;67.60;;;;;;4821426;29;20049;-90
2022/09/05 16:58:17;;;;;;;2.47;1.70;;;23.00;67.30;;;;;;4827229;29;20514;-90
2022/09/05 17:00:54;;;;;;;3.72;1.95;;;22.90;67.90;;;;;;4829187;29;20045;-88
2022/09/05 17:03:32;;;;;;;2.25;1.90;;;22.80;69.20;;;;;;4832289;29;20094;-90
2022/09/05 17:06:31;;;;;;;5.30;2.78;;;22.80;70.20;;;;;;4841271;29;20045;-91
2022/09/05 17:09:04;;;;;;;5.68;3.05;;;22.70;71.50;;;;;;4815284;29;20499;-91
2022/09/05 17:11:41;;;;;;;6.25;2.70;;;22.60;72.70;;;;;;4841500;29;20109;-91
2022/09/05 17:14:40;;;;;;;4.75;2.83;;;22.50;73.50;;;;;;4840285;29;20046;-91
2022/09/05 17:17:28;;;;;;;2.10;1.90;;;22.40;73.90;;;;;;4826231;29;20056;-90
2022/09/05 17:20:21;;;;;;;3.88;2.38;;;22.40;73.80;;;;;;4830647;29;20097;-92
2022/09/05 17:22:48;;;;;;;;;;;22.30;74.20;;;;;;4835147;29;20053;-92
2022/09/05 17:25:44;;;;;;;5.82;2.05;;;22.30;75.30;;;;;;4833143;29;19984;-91
2022/09/05 17:28:49;;;;;;;4.10;2.47;;;22.20;76.10;;;;;;4829655;29;20048;-91
2022/09/05 17:31:44;;;;;;;8.73;3.10;;;22.10;77.40;;;;;;4829897;29;20102;-92
2022/09/05 17:34:55;;;;;;;6.33;2.90;;;22.10;78.70;;;;;;4824042;29;20501;-92
2022/09/05 17:37:55;;;;;;;7.68;2.55;;;22.00;77.60;;;;;;4847970;29;20316;-91
2022/09/05 17:40:54;;;;;;;6.22;2.80;;;22.00;77.70;;;;;;4819124;29;20050;-91
2022/09/05 17:43:40;;;;;;;5.07;2.40;;;21.90;80.50;;;;;;4835176;29;20496;-91
2022/09/05 17:46:20;;;;;;;6.28;1.90;;;21.90;81.80;;;;;;4837422;29;20053;-91
2022/09/05 17:48:51;;;;;;;4.15;1.98;;;21.90;82.40;;;;;;4834849;29;20069;-91
2022/09/05 17:51:40;;;;;;;6.15;2.28;;;21.80;83.20;;;;;;4841303;29;20041;-91
2022/09/05 17:54:28;;;;;;;5.82;2.22;;;21.70;84.40;;;;;;4840439;29;20054;-92
2022/09/05 17:57:27;;;;;;;7.00;2.75;;;21.70;84.80;;;;;;4832897;29;20050;-91
2022/09/05 18:00:00;;;;;;;5.47;2.53;;;21.70;85.10;;;;;;4838552;29;20457;-92
2022/09/05 18:02:55;;;;;;;6.72;2.30;;;21.60;87.90;;;;;;4818479;29;20500;-91
2022/09/05 18:05:53;;;;;;;10.68;3.10;;;21.50;88.80;;;;;;4842287;29;20046;-92
2022/09/05 18:08:46;;;;;;;4.15;2.50;;;21.50;88.50;;;;;;4819310;29;20050;-92
2022/09/05 18:11:17;;;;;;;5.93;2.85;;;21.50;88.60;;;;;;4818682;29;20526;-92
2022/09/05 18:14:10;;;;;;;5.88;3.08;;;21.40;90.00;;;;;;4827980;29;20053;-93
2022/09/05 18:16:52;;;;;;;6.70;3.00;;;21.40;90.50;;;;;;4826660;29;20049;-93
2022/09/05 18:19:46;;;;;;;6.10;2.47;;;21.40;90.40;;;;;;4829331;29;20392;-92
2022/09/05 18:22:29;;;;;;;6.75;2.90;;;21.30;90.70;;;;;;4821242;29;20050;-93
2022/09/05 18:25:15;;;;;;;8.25;3.58;;;21.30;90.80;;;;;;4837967;29;20050;-92
2022/09/05 18:28:17;;;;;;;7.32;3.25;;;21.30;91.10;;;;;;4829979;29;20052;-93
2022/09/05 18:30:45;;;;;;;6.80;3.25;;;21.20;91.40;;;;;;4826804;29;20060;-92
2022/09/05 18:33:16;;;;;;;7.10;3.53;;;21.20;91.80;;;;;;4817438;29;20050;-92
2022/09/05 18:36:18;;;;;;;9.80;4.10;;;21.10;92.20;;;;;;4832767;29;20471;-92
2022/09/05 18:39:31;;;;;;;8.35;3.78;;;21.10;92.80;;;;;;4822616;29;20051;-92
2022/09/05 18:42:14;;;;;;;7.40;3.95;;;21.10;92.90;;;;;;4828290;29;20062;-92
2022/09/05 18:45:11;;;;;;;6.63;3.65;;;21.00;93.20;;;;;;4825055;29;20137;-93
2022/09/05 18:48:01;;;;;;;9.48;3.83;;;21.00;93.80;;;;;;4855088;24;20047;-96
2022/09/05 18:50:35;;;;;;;7.30;4.05;;;20.90;93.90;;;;;;4845180;29;20038;-96
2022/09/05 18:53:09;;;;;;;11.43;3.75;;;20.90;93.70;;;;;;4836952;29;20051;-96
2022/09/05 18:56:06;;;;;;;8.55;3.92;;;20.90;93.90;;;;;;4829969;29;20053;-96
2022/09/05 18:59:07;;;;;;;8.77;4.10;;;20.90;94.10;;;;;;4833983;29;20056;-96
2022/09/05 19:01:54;;;;;;;6.32;3.70;;;20.80;94.00;;;;;;4835545;29;20079;-96
2022/09/05 19:04:48;;;;;;;16.08;4.13;;;20.80;95.00;;;;;;4824452;29;20050;-96
2022/09/05 19:07:33;;;;;;;10.18;4.00;;;20.70;94.80;;;;;;4811120;29;20117;-96
2022/09/05 19:10:16;;;;;;;7.30;3.63;;;20.70;94.90;;;;;;4846475;29;20066;-96
2022/09/05 19:34:21;;;;;;;11.35;4.07;;;20.40;96.20;;;;;;4850514;29;20327;-96
2022/09/05 20:36:12;;;;;;;4.75;2.20;;;20.00;92.50;;;;;;5136182;24;20050;-96
2022/09/05 20:39:48;;;;;;;4.78;2.17;;;20.00;92.00;;;;;;5035120;23;20065;-96
2022/09/05 20:42:41;;;;;;;5.85;2.40;;;20.00;91.30;;;;;;4879349;24;20058;-96
2022/09/05 20:45:47;;;;;;;4.72;2.63;;;19.80;90.80;;;;;;4841455;29;20073;-96
2022/09/05 20:48:41;;;;;;;3.15;2.17;;;19.80;90.80;;;;;;4833406;29;20034;-96
2022/09/05 20:51:29;;;;;;;5.22;2.70;;;19.90;90.70;;;;;;4836032;29;20091;-96
2022/09/05 20:54:27;;;;;;;4.28;1.95;;;19.80;90.70;;;;;;4828701;29;20050;-96
2022/09/05 20:57:21;;;;;;;7.68;2.45;;;19.80;90.70;;;;;;4851304;29;20057;-96
2022/09/05 20:59:50;;;;;;;3.45;2.25;;;19.80;90.80;;;;;;5195842;24;20060;-96
2022/09/05 21:02:26;;;;;;;4.93;1.90;;;19.80;90.60;;;;;;4824772;29;20133;-96
2022/09/05 21:05:04;;;;;;;6.78;1.90;;;19.80;90.70;;;;;;4835985;29;20046;-96
2022/09/05 21:07:48;;;;;;;4.43;2.40;;;19.80;90.70;;;;;;4846370;29;20029;-96
2022/09/05 21:10:28;;;;;;;3.42;1.98;;;19.70;90.90;;;;;;4848519;29;20061;-96
2022/09/05 21:16:55;;;;;;;5.78;1.77;;;19.80;91.20;;;;;;4847952;29;20046;-96
2022/09/05 21:19:43;;;;;;;5.97;2.22;;;19.70;90.90;;;;;;4812706;29;20061;-96
2022/09/05 21:22:34;;;;;;;2.78;1.70;;;19.70;91.00;;;;;;4828092;29;20046;-96
2022/09/05 21:25:25;;;;;;;3.45;1.95;;;19.60;90.90;;;;;;4836450;29;20062;-96
2022/09/05 21:32:27;;;;;;;4.43;1.90;;;19.60;90.50;;;;;;4905116;24;20061;-96
2022/09/05 21:35:08;;;;;;;2.65;2.10;;;19.50;90.40;;;;;;4813481;29;20085;-96
2022/09/05 21:37:57;;;;;;;2.47;1.85;;;19.50;90.40;;;;;;4800631;29;20050;-96
2022/09/05 21:40:25;;;;;;;3.83;2.15;;;19.50;90.50;;;;;;4796264;29;20047;-96
2022/09/05 21:42:58;;;;;;;5.40;1.40;;;19.50;90.60;;;;;;4789528;29;20042;-96
2022/09/05 21:45:46;;;;;;;4.93;1.55;;;19.50;90.70;;;;;;4782440;29;20189;-96
2022/09/05 21:48:34;;;;;;;3.33;1.50;;;19.50;90.40;;;;;;4780102;29;20043;-96
2022/09/05 21:51:07;;;;;;;7.25;1.73;;;19.50;90.60;;;;;;4778820;29;20550;-96
2022/09/05 21:53:40;;;;;;;;;;;19.40;90.30;;;;;;4812700;29;20031;-96
2022/09/05 22:24:17;;;;;;;2.47;1.50;;;19.20;90.80;;;;;;5196337;24;20021;-96
2022/09/05 22:33:10;;;;;;;2.67;1.83;;;19.10;91.00;;;;;;4954719;23;20123;-96
2022/09/05 22:35:42;;;;;;;4.55;1.88;;;19.10;91.50;;;;;;4913141;23;20034;-96
2022/09/05 22:38:12;;;;;;;4.30;1.80;;;19.10;91.50;;;;;;4832894;29;20064;-96
2022/09/05 22:47:31;;;;;;;2.47;1.83;;;19.00;91.90;;;;;;4876119;24;20058;-97
2022/09/05 22:49:59;;;;;;;2.92;2.08;;;19.00;92.60;;;;;;4836917;29;20050;-96
2022/09/05 22:53:10;;;;;;;2.45;1.65;;;19.00;92.80;;;;;;4833448;29;20042;-96
2022/09/05 22:55:40;;;;;;;2.38;1.60;;;18.90;92.70;;;;;;4824350;29;20070;-96
